Time;durP1;ratioP1;P1;durP2;ratioP2;P2;SDS_P1;SDS_P2;PMS_P1;PMS_P2;Temp;Humidity;BMP_temperature;BMP_pressure;BME280_temperature;BME280_humidity;BME280_pressure;Samples;Min_cycle;Max_cycle;Signal;HPM_P1;HPM_P2
2024/02/28 00:01:53;;;;;;;36.57;21.67;;;;;;;;;;4402524;32;319598;-67
2024/02/28 00:04:20;;;;;;;35.03;22.83;;;;;;;;;;4413296;32;319277;-69
2024/02/28 00:06:48;;;;;;;43.53;26.07;;;;;;;;;;4404187;32;319389;-66
2024/02/28 00:09:15;;;;;;;106.07;54.37;;;;;;;;;;4414815;32;319600;-66
2024/02/28 00:11:44;;;;;;;76.20;43.67;;;;;;;;;;4404323;32;320266;-66
2024/02/28 00:14:11;;;;;;;58.47;30.87;;;;;;;;;;4412074;32;319725;-66
2024/02/28 00:16:41;;;;;;;42.00;22.67;;;;;;;;;;4403336;32;357112;-67
2024/02/28 00:19:07;;;;;;;29.67;15.10;;;;;;;;;;4413562;32;319663;-68
2024/02/28 00:21:34;;;;;;;35.83;19.97;;;;;;;;;;4413265;32;319491;-66
2024/02/28 00:24:02;;;;;;;34.60;21.67;;;;;;;;;;4398705;32;358241;-66
2024/02/28 00:26:29;;;;;;;51.13;23.80;;;;;;;;;;4412619;32;319536;-66
2024/02/28 00:28:56;;;;;;;44.47;25.00;;;;;;;;;;4403997;32;319365;-66
2024/02/28 00:31:23;;;;;;;35.70;21.90;;;;;;;;;;4414342;32;319426;-67
2024/02/28 00:33:49;;;;;;;32.80;20.27;;;;;;;;;;4400954;32;319589;-68
2024/02/28 00:36:16;;;;;;;39.80;20.27;;;;;;;;;;4412995;32;319081;-67
2024/02/28 00:38:43;;;;;;;29.23;17.80;;;;;;;;;;4404111;32;319564;-66
2024/02/28 00:41:12;;;;;;;30.23;17.17;;;;;;;;;;4414095;32;319582;-68
2024/02/28 00:43:39;;;;;;;26.70;17.97;;;;;;;;;;4404282;32;319435;-66
2024/02/28 00:46:11;;;;;;;28.13;18.40;;;;;;;;;;4411715;32;319646;-66
2024/02/28 00:48:37;;;;;;;41.40;22.03;;;;;;;;;;4402621;32;319293;-66
2024/02/28 00:51:04;;;;;;;38.83;23.70;;;;;;;;;;4412476;32;319623;-67
2024/02/28 00:53:32;;;;;;;42.03;24.20;;;;;;;;;;4412229;32;319717;-66
2024/02/28 00:55:58;;;;;;;41.17;23.17;;;;;;;;;;4399628;32;319371;-66
2024/02/28 00:58:29;;;;;;;35.23;21.23;;;;;;;;;;4412477;32;319468;-68
2024/02/28 01:00:56;;;;;;;42.10;21.37;;;;;;;;;;4403202;32;319425;-66
2024/02/28 01:03:23;;;;;;;35.13;21.30;;;;;;;;;;4413307;32;318797;-66
2024/02/28 01:05:50;;;;;;;36.53;20.90;;;;;;;;;;4402575;32;319544;-67
2024/02/28 01:08:18;;;;;;;39.73;22.10;;;;;;;;;;4411894;32;319601;-67
2024/02/28 01:10:44;;;;;;;38.87;21.77;;;;;;;;;;4401567;32;319469;-66
2024/02/28 01:13:11;;;;;;;34.00;21.97;;;;;;;;;;4412461;32;319490;-66
2024/02/28 01:15:40;;;;;;;35.50;23.23;;;;;;;;;;4402242;32;358432;-69
2024/02/28 01:18:07;;;;;;;33.93;21.60;;;;;;;;;;4410292;32;337487;-67
2024/02/28 01:20:34;;;;;;;32.57;20.03;;;;;;;;;;4413598;32;319481;-66
2024/02/28 01:23:00;;;;;;;34.37;19.93;;;;;;;;;;4402380;32;319385;-66
2024/02/28 01:25:27;;;;;;;34.67;21.60;;;;;;;;;;4412705;32;328084;-66
2024/02/28 01:27:54;;;;;;;34.80;24.10;;;;;;;;;;4401045;32;319606;-66
2024/02/28 01:30:20;;;;;;;42.43;25.10;;;;;;;;;;4410765;32;318689;-66
2024/02/28 01:32:48;;;;;;;53.17;28.50;;;;;;;;;;4401937;32;319529;-66
2024/02/28 01:35:15;;;;;;;50.93;28.13;;;;;;;;;;4413021;32;319407;-66
2024/02/28 01:37:42;;;;;;;42.67;25.40;;;;;;;;;;4403271;32;319873;-66
2024/02/28 01:40:10;;;;;;;50.60;27.17;;;;;;;;;;4410530;32;319350;-66
2024/02/28 01:42:37;;;;;;;39.70;25.00;;;;;;;;;;4401255;32;319502;-67
2024/02/28 01:45:04;;;;;;;35.47;21.83;;;;;;;;;;4412116;32;319429;-66
2024/02/28 01:47:33;;;;;;;34.60;20.07;;;;;;;;;;4411542;32;319566;-67
2024/02/28 01:50:01;;;;;;;41.77;20.07;;;;;;;;;;4399485;32;319413;-66
2024/02/28 01:52:28;;;;;;;37.00;20.87;;;;;;;;;;4413144;32;319354;-66
2024/02/28 01:54:58;;;;;;;41.70;20.17;;;;;;;;;;4402622;32;319710;-66
2024/02/28 01:57:25;;;;;;;38.63;19.37;;;;;;;;;;4413131;32;319347;-66
2024/02/28 01:59:54;;;;;;;26.67;17.07;;;;;;;;;;4400462;32;318599;-67
2024/02/28 02:02:21;;;;;;;29.57;17.20;;;;;;;;;;4412869;32;319392;-66
2024/02/28 02:04:48;;;;;;;22.73;15.77;;;;;;;;;;4402878;32;319578;-66
2024/02/28 02:07:16;;;;;;;22.97;14.47;;;;;;;;;;4411763;32;319902;-67
2024/02/28 02:09:43;;;;;;;29.10;15.50;;;;;;;;;;4400970;32;319551;-66
2024/02/28 02:12:09;;;;;;;30.13;15.77;;;;;;;;;;4409614;32;319491;-66
2024/02/28 02:14:36;;;;;;;25.33;15.33;;;;;;;;;;4412803;32;319389;-68
2024/02/28 02:17:03;;;;;;;28.30;16.20;;;;;;;;;;4399675;32;420565;-68
2024/02/28 02:19:29;;;;;;;24.47;16.03;;;;;;;;;;4412665;32;319691;-67
2024/02/28 02:21:59;;;;;;;30.37;17.23;;;;;;;;;;4399310;32;319310;-66
2024/02/28 02:24:27;;;;;;;25.20;16.17;;;;;;;;;;4412593;32;319414;-65
2024/02/28 02:26:56;;;;;;;33.03;18.27;;;;;;;;;;4402910;32;319268;-69
2024/02/28 02:29:23;;;;;;;36.00;19.67;;;;;;;;;;4413062;32;319436;-65
2024/02/28 02:31:50;;;;;;;38.67;22.10;;;;;;;;;;4401641;32;319460;-66
2024/02/28 02:34:17;;;;;;;35.47;20.70;;;;;;;;;;4410364;32;319390;-66
2024/02/28 02:36:43;;;;;;;31.77;20.27;;;;;;;;;;4401319;32;319360;-68
2024/02/28 02:39:10;;;;;;;29.17;19.47;;;;;;;;;;4412051;32;319415;-68
2024/02/28 02:41:38;;;;;;;29.47;19.90;;;;;;;;;;4402170;32;319267;-67
2024/02/28 02:44:05;;;;;;;32.80;21.00;;;;;;;;;;4410543;32;319603;-66
2024/02/28 02:46:32;;;;;;;30.43;17.83;;;;;;;;;;4412580;32;318856;-67
2024/02/28 02:48:59;;;;;;;24.00;15.53;;;;;;;;;;4403076;32;319302;-66
2024/02/28 02:51:26;;;;;;;17.07;13.37;;;;;;;;;;4411396;32;319607;-67
2024/02/28 02:53:53;;;;;;;27.03;13.20;;;;;;;;;;4399311;32;319833;-66
2024/02/28 02:56:20;;;;;;;23.50;14.97;;;;;;;;;;4412438;32;319370;-66
2024/02/28 02:58:48;;;;;;;30.50;16.97;;;;;;;;;;4402778;32;319387;-67
2024/02/28 03:01:15;;;;;;;30.03;18.30;;;;;;;;;;4412124;32;317559;-66
2024/02/28 03:03:41;;;;;;;35.00;21.10;;;;;;;;;;4401545;32;318372;-66
2024/02/28 03:06:09;;;;;;;28.70;20.77;;;;;;;;;;4410211;32;320128;-67
2024/02/28 03:08:36;;;;;;;27.77;19.63;;;;;;;;;;4411849;32;318304;-67
2024/02/28 03:11:04;;;;;;;33.07;19.87;;;;;;;;;;4399672;32;418658;-67
2024/02/28 03:13:31;;;;;;;33.30;16.70;;;;;;;;;;4412343;32;319736;-66
2024/02/28 03:15:59;;;;;;;34.00;15.80;;;;;;;;;;4398719;32;319249;-68
2024/02/28 03:18:26;;;;;;;29.27;16.90;;;;;;;;;;4412366;32;319414;-67
2024/02/28 03:20:52;;;;;;;29.13;16.73;;;;;;;;;;4401043;32;319447;-67
2024/02/28 03:23:19;;;;;;;36.20;22.67;;;;;;;;;;4411788;32;318834;-67
2024/02/28 03:25:46;;;;;;;31.93;18.57;;;;;;;;;;4402272;32;319403;-67
2024/02/28 03:28:13;;;;;;;24.87;16.87;;;;;;;;;;4408477;32;319342;-66
2024/02/28 03:30:42;;;;;;;33.17;17.23;;;;;;;;;;4403689;32;319497;-66
2024/02/28 03:33:10;;;;;;;35.37;21.40;;;;;;;;;;4413687;32;318621;-67
2024/02/28 03:35:37;;;;;;;42.10;21.50;;;;;;;;;;4407545;32;318210;-66
2024/02/28 03:38:04;;;;;;;32.73;18.83;;;;;;;;;;4411471;32;318454;-66
2024/02/28 03:40:31;;;;;;;36.73;20.63;;;;;;;;;;4414139;32;318262;-66
2024/02/28 03:42:59;;;;;;;34.50;21.07;;;;;;;;;;4403685;32;319431;-66
2024/02/28 03:45:28;;;;;;;26.67;18.23;;;;;;;;;;4413439;32;319264;-66
2024/02/28 03:47:55;;;;;;;35.37;19.20;;;;;;;;;;4402557;32;319303;-69
2024/02/28 03:50:23;;;;;;;45.43;19.30;;;;;;;;;;4413985;32;319420;-68
2024/02/28 03:52:49;;;;;;;32.47;18.50;;;;;;;;;;4403105;32;319653;-66
2024/02/28 03:55:16;;;;;;;27.47;17.07;;;;;;;;;;4414544;32;319246;-68
2024/02/28 03:57:44;;;;;;;27.83;18.20;;;;;;;;;;4404436;32;334762;-66
2024/02/28 04:00:12;;;;;;;32.07;20.43;;;;;;;;;;4410361;32;318294;-67
2024/02/28 04:02:39;;;;;;;35.73;19.77;;;;;;;;;;4402854;32;352622;-68
2024/02/28 04:05:07;;;;;;;34.37;19.00;;;;;;;;;;4414842;32;318335;-68
2024/02/28 04:07:38;;;;;;;31.70;19.07;;;;;;;;;;4416612;32;317684;-67
2024/02/28 04:10:05;;;;;;;32.83;20.90;;;;;;;;;;4398272;32;417355;-68
2024/02/28 04:12:32;;;;;;;36.33;21.27;;;;;;;;;;4414138;32;329110;-69
2024/02/28 04:14:59;;;;;;;37.30;20.53;;;;;;;;;;4404374;32;328069;-66
2024/02/28 04:17:26;;;;;;;34.07;19.60;;;;;;;;;;4414436;32;318324;-67
2024/02/28 04:19:53;;;;;;;30.83;21.53;;;;;;;;;;4402082;32;318252;-67
2024/02/28 04:22:19;;;;;;;39.30;23.20;;;;;;;;;;4413201;32;317822;-65
2024/02/28 04:24:48;;;;;;;38.90;23.53;;;;;;;;;;4402642;32;334978;-66
2024/02/28 04:27:15;;;;;;;56.37;25.60;;;;;;;;;;4413319;32;318258;-68
2024/02/28 04:29:42;;;;;;;53.63;25.93;;;;;;;;;;4404039;32;318544;-66
2024/02/28 04:32:08;;;;;;;44.37;25.27;;;;;;;;;;4411332;32;318435;-67
2024/02/28 04:34:37;;;;;;;39.77;25.17;;;;;;;;;;4414457;32;318947;-66
2024/02/28 04:37:04;;;;;;;48.67;24.63;;;;;;;;;;4399940;32;419321;-68
2024/02/28 04:39:31;;;;;;;41.97;24.80;;;;;;;;;;4413126;32;318508;-66
2024/02/28 04:41:59;;;;;;;41.60;25.50;;;;;;;;;;4400811;32;322501;-66
2024/02/28 04:44:25;;;;;;;46.80;25.80;;;;;;;;;;4412870;32;318269;-68
2024/02/28 04:46:52;;;;;;;50.47;24.87;;;;;;;;;;4404622;32;318302;-66
2024/02/28 04:49:19;;;;;;;42.20;24.57;;;;;;;;;;4413552;32;317772;-66
2024/02/28 04:51:46;;;;;;;47.60;26.13;;;;;;;;;;4403826;32;318477;-67
2024/02/28 04:54:13;;;;;;;54.33;29.60;;;;;;;;;;4411614;32;317446;-66
2024/02/28 04:56:41;;;;;;;58.03;30.20;;;;;;;;;;4402745;32;318751;-66
2024/02/28 04:59:09;;;;;;;52.53;31.93;;;;;;;;;;4412395;32;318456;-68
2024/02/28 05:01:38;;;;;;;49.13;29.30;;;;;;;;;;4413057;32;318584;-66
2024/02/28 05:04:06;;;;;;;70.50;33.40;;;;;;;;;;4398694;32;417518;-65
2024/02/28 05:06:33;;;;;;;54.73;34.97;;;;;;;;;;4412746;32;318701;-68
2024/02/28 05:09:00;;;;;;;57.00;34.83;;;;;;;;;;4403086;32;318289;-65
2024/02/28 05:11:27;;;;;;;56.80;33.30;;;;;;;;;;4412494;32;317497;-67
2024/02/28 05:13:53;;;;;;;56.40;33.07;;;;;;;;;;4399395;32;346624;-66
2024/02/28 05:16:22;;;;;;;53.27;33.00;;;;;;;;;;4413444;32;318443;-66
2024/02/28 05:18:48;;;;;;;53.07;33.67;;;;;;;;;;4401297;32;358158;-66
2024/02/28 05:21:15;;;;;;;56.77;31.53;;;;;;;;;;4412878;32;318486;-68
2024/02/28 05:23:42;;;;;;;57.10;30.60;;;;;;;;;;4403398;32;317680;-67
2024/02/28 05:26:09;;;;;;;48.60;29.00;;;;;;;;;;4410045;32;318491;-66
2024/02/28 05:28:35;;;;;;;76.40;44.83;;;;;;;;;;4411270;32;345791;-69
2024/02/28 05:31:03;;;;;;;68.50;38.87;;;;;;;;;;4399713;32;417552;-68
2024/02/28 05:33:31;;;;;;;61.07;35.77;;;;;;;;;;4412734;32;318061;-67
2024/02/28 05:35:59;;;;;;;51.70;32.20;;;;;;;;;;4400549;32;318783;-68
2024/02/28 05:38:26;;;;;;;54.77;33.53;;;;;;;;;;4412739;32;318309;-66
2024/02/28 05:40:52;;;;;;;49.93;31.93;;;;;;;;;;4401800;32;318483;-66
2024/02/28 05:43:19;;;;;;;62.07;32.07;;;;;;;;;;4412484;32;318147;-66
2024/02/28 05:45:46;;;;;;;52.63;33.93;;;;;;;;;;4401439;32;318297;-66
2024/02/28 05:48:12;;;;;;;77.87;47.60;;;;;;;;;;4409511;32;318715;-66
2024/02/28 05:50:41;;;;;;;58.83;34.33;;;;;;;;;;4402307;32;318433;-68
2024/02/28 05:53:07;;;;;;;70.67;38.07;;;;;;;;;;4411773;32;317737;-64
2024/02/28 05:55:34;;;;;;;78.23;40.53;;;;;;;;;;4412829;32;318642;-64
2024/02/28 05:58:01;;;;;;;80.93;45.97;;;;;;;;;;4400195;32;318243;-68
2024/02/28 06:00:28;;;;;;;74.50;43.33;;;;;;;;;;4411770;32;318260;-65
2024/02/28 06:02:54;;;;;;;77.03;41.97;;;;;;;;;;4403152;32;318077;-65
2024/02/28 06:05:21;;;;;;;92.33;45.77;;;;;;;;;;4412764;32;318249;-65
2024/02/28 06:07:49;;;;;;;98.77;47.40;;;;;;;;;;4400900;32;318479;-65
2024/02/28 06:10:16;;;;;;;74.53;37.67;;;;;;;;;;4412593;32;318498;-65
2024/02/28 06:12:43;;;;;;;75.53;38.00;;;;;;;;;;4401798;32;318206;-65
2024/02/28 06:15:10;;;;;;;75.07;39.23;;;;;;;;;;4411319;32;318287;-65
2024/02/28 06:17:37;;;;;;;86.87;44.00;;;;;;;;;;4402673;32;318623;-71
2024/02/28 06:20:04;;;;;;;90.87;45.80;;;;;;;;;;4408547;32;318481;-65
2024/02/28 06:22:31;;;;;;;80.53;44.03;;;;;;;;;;4412198;32;318191;-68
2024/02/28 06:24:59;;;;;;;82.07;44.30;;;;;;;;;;4401926;32;318185;-65
2024/02/28 06:27:26;;;;;;;96.57;49.33;;;;;;;;;;4412447;32;318442;-64
2024/02/28 06:29:53;;;;;;;92.67;49.60;;;;;;;;;;4399980;32;318479;-65
2024/02/28 06:32:20;;;;;;;87.93;47.67;;;;;;;;;;4412205;32;318416;-67
2024/02/28 06:34:47;;;;;;;86.23;53.63;;;;;;;;;;4401016;32;318553;-67
2024/02/28 06:37:13;;;;;;;88.23;54.03;;;;;;;;;;4410773;32;350637;-65
2024/02/28 06:39:40;;;;;;;94.43;52.53;;;;;;;;;;4402133;32;318488;-65
2024/02/28 06:42:08;;;;;;;102.37;54.07;;;;;;;;;;4408550;32;318562;-65
2024/02/28 06:44:35;;;;;;;87.87;45.60;;;;;;;;;;4412039;32;318794;-64
2024/02/28 06:47:02;;;;;;;79.73;47.97;;;;;;;;;;4398231;32;418991;-67
2024/02/28 06:49:28;;;;;;;109.83;59.40;;;;;;;;;;4411975;32;318716;-66
2024/02/28 06:51:58;;;;;;;114.47;62.20;;;;;;;;;;4399846;32;320264;-65
2024/02/28 06:54:24;;;;;;;119.47;63.63;;;;;;;;;;4411083;32;319090;-66
2024/02/28 06:56:51;;;;;;;117.13;76.33;;;;;;;;;;4402443;32;319374;-67
2024/02/28 06:59:19;;;;;;;106.80;61.47;;;;;;;;;;4411080;32;319998;-66
2024/02/28 07:01:46;;;;;;;106.20;66.80;;;;;;;;;;4402350;32;320573;-66
2024/02/28 07:04:13;;;;;;;104.63;59.23;;;;;;;;;;4411050;32;319176;-67
2024/02/28 07:06:39;;;;;;;98.17;60.20;;;;;;;;;;4403586;32;319496;-68
2024/02/28 07:09:06;;;;;;;92.63;52.67;;;;;;;;;;4413717;32;318278;-66
2024/02/28 07:11:32;;;;;;;84.40;48.03;;;;;;;;;;4414692;32;317923;-66
2024/02/28 07:14:02;;;;;;;83.83;50.03;;;;;;;;;;4402031;32;317905;-66
2024/02/28 07:16:30;;;;;;;70.47;43.07;;;;;;;;;;4415319;32;318354;-67
2024/02/28 07:18:56;;;;;;;80.80;43.22;;;;;;;;;;4403794;32;346993;-66
2024/02/28 07:21:23;;;;;;;90.20;53.37;;;;;;;;;;4414444;32;318576;-66
2024/02/28 07:23:50;;;;;;;95.13;51.17;;;;;;;;;;4401629;32;318194;-70
2024/02/28 07:26:17;;;;;;;90.17;52.90;;;;;;;;;;4414149;32;333597;-65
2024/02/28 07:28:49;;;;;;;97.37;54.57;;;;;;;;;;4403591;32;319527;-69
2024/02/28 07:31:16;;;;;;;107.97;62.93;;;;;;;;;;4412951;32;319031;-67
2024/02/28 07:33:44;;;;;;;110.43;66.77;;;;;;;;;;4403163;32;320415;-67
2024/02/28 07:36:11;;;;;;;89.87;56.13;;;;;;;;;;4411075;32;320402;-66
2024/02/28 07:38:37;;;;;;;97.17;58.23;;;;;;;;;;4404830;32;319582;-69
2024/02/28 07:41:05;;;;;;;95.03;61.27;;;;;;;;;;4413995;32;319053;-65
2024/02/28 07:43:37;;;;;;;98.73;57.13;;;;;;;;;;4412894;32;319277;-65
2024/02/28 07:46:07;;;;;;;84.03;52.43;;;;;;;;;;4399954;32;418674;-67
2024/02/28 07:48:34;;;;;;;83.77;54.70;;;;;;;;;;4414299;32;318446;-68
2024/02/28 07:51:02;;;;;;;93.17;58.07;;;;;;;;;;4403533;32;319777;-66
2024/02/28 07:53:29;;;;;;;94.23;63.83;;;;;;;;;;4413054;32;319136;-65
2024/02/28 07:55:56;;;;;;;96.93;56.67;;;;;;;;;;4401872;32;319518;-65
2024/02/28 07:58:23;;;;;;;87.93;53.17;;;;;;;;;;4413343;32;318755;-66
2024/02/28 08:00:52;;;;;;;93.70;64.27;;;;;;;;;;4403009;32;328831;-65
2024/02/28 08:03:19;;;;;;;94.50;51.43;;;;;;;;;;4413061;32;320050;-66
2024/02/28 08:05:46;;;;;;;85.77;50.87;;;;;;;;;;4403979;32;319620;-66
2024/02/28 08:08:14;;;;;;;86.53;50.90;;;;;;;;;;4411327;32;319944;-65
2024/02/28 08:10:40;;;;;;;90.83;50.13;;;;;;;;;;4402180;32;368788;-66
2024/02/28 08:13:10;;;;;;;93.77;56.00;;;;;;;;;;4414215;32;319298;-65
2024/02/28 08:15:37;;;;;;;82.50;50.57;;;;;;;;;;4409844;32;319181;-67
2024/02/28 08:18:04;;;;;;;67.53;42.30;;;;;;;;;;4410325;32;319423;-69
2024/02/28 08:20:31;;;;;;;58.00;35.93;;;;;;;;;;4412640;32;319487;-66
2024/02/28 08:22:58;;;;;;;57.27;34.87;;;;;;;;;;4402108;32;330465;-65
2024/02/28 08:25:26;;;;;;;47.03;27.10;;;;;;;;;;4412219;32;319026;-66
2024/02/28 08:27:53;;;;;;;42.70;26.67;;;;;;;;;;4401221;32;319477;-65
2024/02/28 08:30:20;;;;;;;37.30;24.03;;;;;;;;;;4411383;32;360276;-66
2024/02/28 08:32:46;;;;;;;34.73;22.90;;;;;;;;;;4403667;32;319202;-66
2024/02/28 08:35:13;;;;;;;42.00;21.97;;;;;;;;;;4411434;32;319364;-65
2024/02/28 08:37:41;;;;;;;48.50;24.87;;;;;;;;;;4403083;32;319649;-67
2024/02/28 08:40:09;;;;;;;46.13;25.50;;;;;;;;;;4411274;32;319366;-69
2024/02/28 08:42:37;;;;;;;38.37;26.57;;;;;;;;;;4413694;32;319312;-65
2024/02/28 08:45:05;;;;;;;49.17;25.30;;;;;;;;;;4400559;32;418594;-65
2024/02/28 08:47:33;;;;;;;42.03;25.67;;;;;;;;;;4413576;32;319241;-66
2024/02/28 08:49:59;;;;;;;33.80;21.33;;;;;;;;;;4401222;32;318530;-65
2024/02/28 08:52:26;;;;;;;24.67;16.13;;;;;;;;;;4413623;32;319447;-65
2024/02/28 08:54:53;;;;;;;23.97;13.83;;;;;;;;;;4402284;32;319157;-66
2024/02/28 08:57:22;;;;;;;25.97;14.30;;;;;;;;;;4409953;32;319212;-65
2024/02/28 08:59:50;;;;;;;25.97;13.67;;;;;;;;;;4403289;32;319521;-68
2024/02/28 09:02:17;;;;;;;19.40;12.03;;;;;;;;;;4412966;32;319323;-66
2024/02/28 09:04:43;;;;;;;22.63;13.63;;;;;;;;;;4403057;32;319541;-66
2024/02/28 09:07:11;;;;;;;23.30;11.20;;;;;;;;;;4410524;32;319414;-66
2024/02/28 09:09:43;;;;;;;22.43;13.47;;;;;;;;;;4401913;32;319558;-66
2024/02/28 09:12:10;;;;;;;25.10;17.13;;;;;;;;;;4412939;32;319532;-65
2024/02/28 09:14:36;;;;;;;28.00;13.60;;;;;;;;;;4402349;32;319121;-67
2024/02/28 09:17:05;;;;;;;21.03;14.47;;;;;;;;;;4409251;32;319588;-65
2024/02/28 09:19:32;;;;;;;31.20;15.37;;;;;;;;;;4412984;32;319664;-65
2024/02/28 09:21:59;;;;;;;26.70;16.17;;;;;;;;;;4400281;32;418659;-65
2024/02/28 09:24:27;;;;;;;22.57;13.97;;;;;;;;;;4412773;32;319549;-66
2024/02/28 09:26:54;;;;;;;20.87;13.43;;;;;;;;;;4399785;32;319716;-67
2024/02/28 09:29:21;;;;;;;25.37;14.30;;;;;;;;;;4412400;32;319574;-67
2024/02/28 09:31:47;;;;;;;25.17;12.63;;;;;;;;;;4402401;32;319416;-67
2024/02/28 09:34:16;;;;;;;21.80;11.13;;;;;;;;;;4412148;32;319535;-66
2024/02/28 09:36:45;;;;;;;22.57;12.40;;;;;;;;;;4403067;32;318883;-64
2024/02/28 09:39:11;;;;;;;21.30;13.17;;;;;;;;;;4412194;32;319528;-64
2024/02/28 09:41:38;;;;;;;19.73;11.70;;;;;;;;;;4401517;32;318817;-64
2024/02/28 09:44:07;;;;;;;20.43;11.87;;;;;;;;;;4412727;32;318915;-65
2024/02/28 09:46:35;;;;;;;19.07;12.23;;;;;;;;;;4402417;32;319699;-66
2024/02/28 09:49:04;;;;;;;25.37;13.17;;;;;;;;;;4410718;32;319980;-64
2024/02/28 09:51:34;;;;;;;24.03;12.77;;;;;;;;;;4411301;32;321001;-65
2024/02/28 09:54:01;;;;;;;19.17;12.57;;;;;;;;;;4400103;32;420579;-65
2024/02/28 09:56:31;;;;;;;18.40;13.37;;;;;;;;;;4412640;32;319523;-65
2024/02/28 09:58:58;;;;;;;22.00;12.60;;;;;;;;;;4398978;32;319003;-67
2024/02/28 10:01:26;;;;;;;23.90;11.93;;;;;;;;;;4412499;32;318623;-67
2024/02/28 10:03:56;;;;;;;20.43;12.47;;;;;;;;;;4401604;32;319278;-65
2024/02/28 10:06:23;;;;;;;22.97;13.57;;;;;;;;;;4412203;32;319902;-66
2024/02/28 10:08:52;;;;;;;37.87;14.43;;;;;;;;;;4400232;32;319411;-66
2024/02/28 10:11:20;;;;;;;27.77;13.33;;;;;;;;;;4412430;32;319577;-65
2024/02/28 10:13:47;;;;;;;30.30;13.60;;;;;;;;;;4400292;32;340368;-65
2024/02/28 10:16:15;;;;;;;27.23;13.20;;;;;;;;;;4412536;32;319507;-66
2024/02/28 10:18:43;;;;;;;23.83;13.53;;;;;;;;;;4402596;32;319327;-66
2024/02/28 10:21:09;;;;;;;25.63;15.20;;;;;;;;;;4408480;32;319934;-65
2024/02/28 10:23:37;;;;;;;26.83;15.20;;;;;;;;;;4401329;32;319643;-66
2024/02/28 10:26:05;;;;;;;38.77;18.13;;;;;;;;;;4412231;32;319360;-65
2024/02/28 10:28:32;;;;;;;21.83;13.47;;;;;;;;;;4410801;32;319423;-68
2024/02/28 10:30:59;;;;;;;24.00;14.63;;;;;;;;;;4395992;32;418414;-67
2024/02/28 10:33:29;;;;;;;21.53;14.37;;;;;;;;;;4412194;32;319516;-66
2024/02/28 10:35:57;;;;;;;25.90;15.50;;;;;;;;;;4401437;32;319360;-65
2024/02/28 10:38:23;;;;;;;33.00;16.20;;;;;;;;;;4414914;32;318783;-67
2024/02/28 10:40:52;;;;;;;27.13;15.23;;;;;;;;;;4402215;32;318868;-67
2024/02/28 10:43:21;;;;;;;31.00;18.57;;;;;;;;;;4415315;32;319977;-65
2024/02/28 10:45:47;;;;;;;32.13;19.27;;;;;;;;;;4402918;32;318685;-65
2024/02/28 10:48:16;;;;;;;28.23;18.13;;;;;;;;;;4414343;32;318944;-65
2024/02/28 10:50:44;;;;;;;32.13;18.20;;;;;;;;;;4403845;32;319559;-66
2024/02/28 10:53:15;;;;;;;36.23;18.60;;;;;;;;;;4411321;32;319505;-65
2024/02/28 10:55:43;;;;;;;34.30;18.87;;;;;;;;;;4403268;32;319274;-66
2024/02/28 10:58:11;;;;;;;29.87;19.43;;;;;;;;;;4414675;32;318719;-66
2024/02/28 11:00:41;;;;;;;30.87;18.60;;;;;;;;;;4405372;32;319495;-64
2024/02/28 11:03:09;;;;;;;28.17;19.30;;;;;;;;;;4412361;32;319291;-65
2024/02/28 11:05:38;;;;;;;34.03;18.73;;;;;;;;;;4402635;32;325335;-65
2024/02/28 11:08:06;;;;;;;33.43;19.33;;;;;;;;;;4414751;32;319601;-64
2024/02/28 11:10:34;;;;;;;31.17;18.33;;;;;;;;;;4414949;32;318815;-66
2024/02/28 11:13:00;;;;;;;25.63;15.07;;;;;;;;;;4398179;32;419000;-64
2024/02/28 11:15:27;;;;;;;31.40;18.20;;;;;;;;;;4413878;32;353328;-64
2024/02/28 11:17:55;;;;;;;23.90;16.43;;;;;;;;;;4404892;32;319566;-64
2024/02/28 11:20:22;;;;;;;35.40;17.67;;;;;;;;;;4413226;32;319559;-67
2024/02/28 11:22:50;;;;;;;32.10;18.03;;;;;;;;;;4400371;32;318808;-65
2024/02/28 11:25:17;;;;;;;36.03;18.17;;;;;;;;;;4413151;32;319429;-66
2024/02/28 11:27:47;;;;;;;31.73;18.30;;;;;;;;;;4404617;32;319609;-64
2024/02/28 11:30:15;;;;;;;28.77;16.53;;;;;;;;;;4412749;32;319014;-65
2024/02/28 11:32:43;;;;;;;29.77;16.73;;;;;;;;;;4403399;32;319784;-67
2024/02/28 11:35:11;;;;;;;27.83;14.75;;;;;;;;;;4411130;32;319258;-66
2024/02/28 11:37:39;;;;;;;31.73;16.70;;;;;;;;;;4402660;32;319365;-65
2024/02/28 11:40:09;;;;;;;25.37;16.37;;;;;;;;;;4412422;32;319381;-65
2024/02/28 11:42:36;;;;;;;25.80;15.90;;;;;;;;;;4401888;32;403284;-65
2024/02/28 11:45:05;;;;;;;22.77;13.32;;;;;;;;;;4411817;32;319529;-64
2024/02/28 11:47:32;;;;;;;20.40;14.50;;;;;;;;;;4414582;32;319438;-65
2024/02/28 11:49:59;;;;;;;21.57;13.40;;;;;;;;;;4400683;32;418205;-65
2024/02/28 11:52:27;;;;;;;20.20;13.70;;;;;;;;;;4414019;32;319367;-64
2024/02/28 11:54:54;;;;;;;20.07;11.90;;;;;;;;;;4399747;32;341380;-65
2024/02/28 11:57:22;;;;;;;23.93;10.67;;;;;;;;;;4414097;32;319386;-65
2024/02/28 11:59:51;;;;;;;24.90;12.43;;;;;;;;;;4404131;32;318736;-67
2024/02/28 12:02:19;;;;;;;22.37;11.47;;;;;;;;;;4413925;32;326226;-64
2024/02/28 12:04:49;;;;;;;16.77;10.83;;;;;;;;;;4402162;32;319506;-71
2024/02/28 12:07:16;;;;;;;24.63;12.00;;;;;;;;;;4412067;32;334702;-64
2024/02/28 12:09:45;;;;;;;26.00;11.57;;;;;;;;;;4404417;32;318861;-65
2024/02/28 12:12:13;;;;;;;23.77;11.67;;;;;;;;;;4413335;32;319342;-64
2024/02/28 12:14:41;;;;;;;17.50;12.20;;;;;;;;;;4403138;32;319333;-67
2024/02/28 12:17:09;;;;;;;23.30;11.23;;;;;;;;;;4409821;32;356824;-66
2024/02/28 12:19:36;;;;;;;18.03;10.90;;;;;;;;;;4402656;32;319473;-65
2024/02/28 12:22:04;;;;;;;19.33;11.30;;;;;;;;;;4414036;32;319349;-66
2024/02/28 12:24:30;;;;;;;22.80;13.20;;;;;;;;;;4412808;32;319486;-64
2024/02/28 12:26:59;;;;;;;25.80;11.20;;;;;;;;;;4399846;32;335085;-66
2024/02/28 12:29:25;;;;;;;23.43;11.73;;;;;;;;;;4412533;32;319392;-65
2024/02/28 12:31:52;;;;;;;27.17;12.33;;;;;;;;;;4403922;32;319556;-66
2024/02/28 12:34:19;;;;;;;19.90;11.40;;;;;;;;;;4414071;32;319352;-66
2024/02/28 12:36:46;;;;;;;23.58;11.90;;;;;;;;;;4400636;32;319611;-65
2024/02/28 12:39:12;;;;;;;20.20;12.25;;;;;;;;;;4412882;32;319426;-65
2024/02/28 12:41:39;;;;;;;38.33;20.65;;;;;;;;;;4403055;32;341498;-66
2024/02/28 12:44:08;;;;;;;23.20;12.57;;;;;;;;;;4413729;32;319677;-65
2024/02/28 12:46:36;;;;;;;17.87;10.77;;;;;;;;;;4403930;32;319607;-65
2024/02/28 12:49:02;;;;;;;26.27;12.45;;;;;;;;;;4409746;32;319215;-65
2024/02/28 12:51:41;;;;;;;23.38;11.77;;;;;;;;;;4412975;32;343543;-65
2024/02/28 12:54:08;;;;;;;29.15;13.60;;;;;;;;;;4383839;32;418626;-65
2024/02/28 12:56:35;;;;;;;22.97;12.07;;;;;;;;;;4388257;32;318859;-65
2024/02/28 12:59:02;;;;;;;28.30;12.68;;;;;;;;;;4395390;32;319279;-67
2024/02/28 13:01:31;;;;;;;10.13;6.00;;;;;;;;;;4397038;32;319525;-65
2024/02/28 13:03:58;;;;;;;11.70;7.35;;;;;;;;;;4386857;32;318361;-67
2024/02/28 13:06:25;;;;;;;10.57;7.12;;;;;;;;;;4397130;32;318312;-67
2024/02/28 13:08:52;;;;;;;12.75;5.75;;;;;;;;;;4385056;32;318462;-66
2024/02/28 13:11:20;;;;;;;19.65;6.87;;;;;;;;;;4397024;32;318383;-67
2024/02/28 13:13:47;;;;;;;17.87;7.10;;;;;;;;;;4388576;32;318200;-67
2024/02/28 13:16:14;;;;;;;12.97;7.60;;;;;;;;;;4397878;32;318306;-70
2024/02/28 13:18:42;;;;;;;19.52;7.90;;;;;;;;;;4386853;32;318264;-65
2024/02/28 13:21:09;;;;;;;16.17;6.43;;;;;;;;;;4394318;32;318404;-65
2024/02/28 13:23:37;;;;;;;20.42;6.62;;;;;;;;;;4388183;32;318278;-70
2024/02/28 13:26:04;;;;;;;11.43;6.55;;;;;;;;;;4396895;32;318491;-67
2024/02/28 13:28:31;;;;;;;13.77;7.65;;;;;;;;;;4398270;32;318374;-69
2024/02/28 13:30:58;;;;;;;18.50;7.05;;;;;;;;;;4385665;32;318411;-67
2024/02/28 13:33:25;;;;;;;14.83;6.93;;;;;;;;;;4398147;32;317792;-65
2024/02/28 13:35:56;;;;;;;13.60;5.78;;;;;;;;;;4386796;32;318093;-65
2024/02/28 13:38:23;;;;;;;20.97;6.33;;;;;;;;;;4396370;32;318200;-69
2024/02/28 13:40:50;;;;;;;12.30;5.60;;;;;;;;;;4384857;32;318779;-66
2024/02/28 13:43:18;;;;;;;22.05;6.97;;;;;;;;;;4397762;32;318432;-68
2024/02/28 13:45:48;;;;;;;13.60;5.55;;;;;;;;;;4386849;32;318251;-66
2024/02/28 13:48:17;;;;;;;11.88;5.45;;;;;;;;;;4398234;32;318308;-66
2024/02/28 13:50:44;;;;;;;19.43;6.30;;;;;;;;;;4388064;32;318328;-69
2024/02/28 13:53:14;;;;;;;27.50;6.13;;;;;;;;;;4395841;32;317471;-68
2024/02/28 13:55:42;;;;;;;9.63;5.55;;;;;;;;;;4387823;32;318698;-69
2024/02/28 13:58:11;;;;;;;9.40;4.97;;;;;;;;;;4397668;32;317391;-67
2024/02/28 14:00:38;;;;;;;18.00;6.05;;;;;;;;;;4386766;32;317279;-68
2024/02/28 14:03:06;;;;;;;13.52;5.80;;;;;;;;;;4394418;32;318634;-67
2024/02/28 14:05:32;;;;;;;13.32;5.60;;;;;;;;;;4396360;32;318315;-67
2024/02/28 14:07:59;;;;;;;14.93;5.95;;;;;;;;;;4400112;32;417501;-68